Kodiak Airport
PADQ : now visible

Airfield :











YOU CAN JOIN US ON...

 
LOGIN :

Register | Disclaimer

   EN    FR    IT 

 









Legend :    VFR   Marginal VFR   IFR   Intensive IFR   Very Intensive IFR
Visi :
Ceiling :
>= 8 km
>= 3000ft
5 to 8 km
1000 to 3000 ft
1500m to 5 km
500 to 1000 ft
800 to 1500m
200 to 500 ft
< 800m
< 200 ft
Symbols :   Thunderstorms  Fog  Heavy snow  Heavy precipitations  Wind > 20 kt






- Airport Elevation : 78 ft
- IATA code : ADQ


PADQ - Kodiak

CURRENT METAR :
  • 260053Z 29020G28KT 9SM -SN OVC027 M08/M14 A2937 RMK AO2 PK WND 30028/0048 SNB2355 SLP947 P0000 T10781139 $

EXPIRED METARs :
  • 252353Z 31015G22KT 10SM OVC027 M07/M13 A2937 RMK AO2 PK WND 28028/2307 SLP948 60000 T10671133 11067 21072 $

TAF PADQ
Valid from the 26 at 00:00 until the 27 at 00:00 UTC


252321Z 2600/2624 30015G25KT P6SM VCSH OVC029
FM261600 30010KT P6SM BKN030



MET'MAP, your aeronautical weather chart ! - Copyright ORBIFLY December 2007 - Disclaimer

ORBIFLY MET'MAP TEAM :

Programming & Development : Alexandra Zaïnal
Concept & original design : Baudouin d'Aumeries
Assistance for programming : Marc-Olivier Méhu
Technical & hardware support : Manuel Goepfert

Contact : metmap@orbifly.com




SOURCES & CREDITS :

   NOAA       Earth
Advisory